Time;durP1;ratioP1;P1;durP2;ratioP2;P2;SDS_P1;SDS_P2;PMS_P1;PMS_P2;Temp;Humidity;BMP_temperature;BMP_pressure;BME280_temperature;BME280_humidity;BME280_pressure;Samples;Min_cycle;Max_cycle;Signal;HPM_P1;HPM_P2
2021/11/30 00:01:52;;;;;;;19.07;10.80;;;;;;;7.87;100.00;97706.01;1778738;81;21045;-71
2021/11/30 00:04:19;;;;;;;18.37;10.37;;;;;;;7.85;100.00;97720.20;1778805;81;21014;-72
2021/11/30 00:06:48;;;;;;;16.77;9.97;;;;;;;7.82;100.00;97714.70;1778851;80;21058;-70
2021/11/30 00:12:09;;;;;;;18.37;9.97;;;;;;;7.79;100.00;97729.91;1778765;80;21046;-72
2021/11/30 00:14:38;;;;;;;18.47;10.60;;;;;;;7.77;100.00;97740.91;1779145;81;21006;-70
2021/11/30 00:17:05;;;;;;;16.60;9.77;;;;;;;7.78;100.00;97747.10;1779034;81;20983;-70
2021/11/30 00:19:33;;;;;;;17.37;10.80;;;;;;;7.78;100.00;97741.20;1778725;81;21091;-72
2021/11/30 00:22:00;;;;;;;16.60;10.03;;;;;;;7.78;100.00;97759.21;1748793;81;21539;-71
2021/11/30 00:24:30;;;;;;;14.90;9.00;;;;;;;7.72;100.00;97768.09;1778837;81;20986;-72
2021/11/30 00:26:57;;;;;;;15.23;8.80;;;;;;;7.66;100.00;97783.22;1778927;81;20970;-70
2021/11/30 00:29:24;;;;;;;12.33;8.00;;;;;;;7.58;100.00;97796.36;1779005;81;21121;-71
2021/11/30 00:31:51;;;;;;;12.20;7.47;;;;;;;7.44;100.00;97806.80;1778945;81;21034;-71
2021/11/30 00:34:18;;;;;;;14.60;8.00;;;;;;;7.31;100.00;97812.16;1771540;80;21041;-71
2021/11/30 00:36:45;;;;;;;12.70;7.67;;;;;;;7.23;100.00;97809.16;1770609;80;21041;-70
2021/11/30 00:39:12;;;;;;;11.73;7.37;;;;;;;7.13;100.00;97821.63;1770447;81;20994;-71
2021/11/30 00:41:44;;;;;;;12.73;7.70;;;;;;;7.04;100.00;97825.02;1770480;81;21496;-72
2021/11/30 00:44:08;;;;;;;14.00;8.10;;;;;;;6.98;100.00;97825.84;1767553;81;20971;-72
2021/11/30 00:46:37;;;;;;;11.87;8.03;;;;;;;6.96;100.00;97828.42;1770437;81;21014;-71
2021/11/30 00:49:06;;;;;;;14.87;8.20;;;;;;;6.92;100.00;97831.19;1770596;81;20974;-72
2021/11/30 00:51:38;;;;;;;14.77;8.13;;;;;;;6.88;100.00;97835.31;1770347;81;21018;-72
2021/11/30 00:54:07;;;;;;;14.20;8.37;;;;;;;6.84;100.00;97849.14;1770650;81;20974;-71
2021/11/30 00:56:38;;;;;;;14.37;8.73;;;;;;;6.78;100.00;97852.64;1770413;81;21065;-72
2021/11/30 00:59:05;;;;;;;15.23;8.37;;;;;;;6.73;100.00;97863.16;1699964;83;21456;-71
2021/11/30 01:01:32;;;;;;;14.20;8.53;;;;;;;6.67;100.00;97865.27;1700141;84;20998;-71
2021/11/30 01:03:59;;;;;;;14.33;8.47;;;;;;;6.64;100.00;97873.23;1699836;84;21027;-71
2021/11/30 01:06:26;;;;;;;13.87;9.00;;;;;;;6.64;100.00;97875.09;1700078;83;21133;-71
2021/11/30 01:08:53;;;;;;;14.80;8.80;;;;;;;6.63;100.00;97886.85;1699951;84;21006;-71
2021/11/30 01:11:20;;;;;;;15.53;9.47;;;;;;;6.61;100.00;97888.39;1700023;84;21066;-71
2021/11/30 01:13:47;;;;;;;16.80;9.83;;;;;;;6.61;100.00;97892.42;1699969;83;21600;-70
2021/11/30 01:16:13;;;;;;;15.07;9.43;;;;;;;6.59;100.00;97902.53;1700094;84;21078;-71
2021/11/30 01:18:41;;;;;;;16.20;9.97;;;;;;;6.54;100.00;97904.16;1699658;84;21071;-70
2021/11/30 01:21:07;;;;;;;18.07;9.83;;;;;;;6.49;100.00;97906.08;1712670;83;21082;-71
2021/11/30 01:23:34;;;;;;;18.47;10.27;;;;;;;6.45;100.00;97915.56;1713302;84;21078;-72
2021/11/30 01:26:02;;;;;;;16.73;9.97;;;;;;;6.40;100.00;97916.66;1689370;84;21540;-71
2021/11/30 01:28:28;;;;;;;15.37;8.80;;;;;;;6.33;100.00;97927.34;1713245;84;21070;-70
2021/11/30 01:30:58;;;;;;;16.83;9.50;;;;;;;6.31;100.00;97937.98;1712950;84;21112;-70
2021/11/30 01:33:25;;;;;;;15.83;8.70;;;;;;;6.24;100.00;97944.63;1713955;83;20999;-70
2021/11/30 01:35:52;;;;;;;14.23;8.03;;;;;;;6.18;100.00;97950.76;1714784;81;21030;-70
2021/11/30 01:38:18;;;;;;;12.80;7.63;;;;;;;6.05;100.00;97956.33;1714599;83;21065;-70
2021/11/30 01:40:45;;;;;;;11.17;6.50;;;;;;;5.96;100.00;97966.87;1715012;83;21054;-72
2021/11/30 01:43:21;;;;;;;8.83;6.20;;;;;;;5.88;100.00;97973.70;1714607;83;21103;-69
2021/11/30 01:45:56;;;;;;;11.13;6.13;;;;;;;5.77;100.00;97978.21;1711120;84;21085;-71
2021/11/30 01:50:55;;;;;;;7.10;4.73;;;;;;;5.53;100.00;98000.86;1714628;84;20126;-71
2021/11/30 01:53:22;;;;;;;7.23;4.63;;;;;;;5.35;100.00;98006.61;1715054;83;21003;-71
2021/11/30 01:55:49;;;;;;;6.77;5.00;;;;;;;5.21;100.00;98008.31;1747937;80;21086;-70
2021/11/30 01:58:16;;;;;;;7.90;4.83;;;;;;;5.08;100.00;98012.97;1781880;80;21055;-68
2021/11/30 02:00:44;;;;;;;6.50;4.27;;;;;;;4.97;100.00;98024.98;1781787;80;20996;-69
2021/11/30 02:03:11;;;;;;;7.67;4.50;;;;;;;4.88;100.00;98030.11;1781919;80;20991;-73
2021/11/30 02:05:39;;;;;;;5.70;4.30;;;;;;;4.79;100.00;98034.71;1781786;80;21015;-71
2021/11/30 02:08:06;;;;;;;6.77;4.50;;;;;;;4.69;100.00;98036.81;1781781;80;20991;-69
2021/11/30 02:10:34;;;;;;;6.83;4.40;;;;;;;4.63;100.00;98046.41;1781752;80;21027;-70
2021/11/30 02:13:01;;;;;;;7.27;4.53;;;;;;;4.56;100.00;98040.95;1781723;80;21015;-69
2021/11/30 02:15:28;;;;;;;6.37;4.40;;;;;;;4.52;100.00;98049.03;1781835;80;21046;-70
2021/11/30 02:17:57;;;;;;;6.83;4.50;;;;;;;4.44;100.00;98049.09;1781667;80;21027;-70
2021/11/30 02:20:24;;;;;;;5.70;4.20;;;;;;;4.40;100.00;98063.02;1744405;82;21026;-71
2021/11/30 02:22:54;;;;;;;11.40;4.80;;;;;;;4.34;100.00;98065.41;1744657;82;21445;-71
2021/11/30 02:25:21;;;;;;;6.07;4.30;;;;;;;4.29;100.00;98067.78;1744304;81;21018;-71
2021/11/30 02:27:49;;;;;;;7.33;4.70;;;;;;;4.28;100.00;98070.64;1744640;82;20983;-70
2021/11/30 02:30:16;;;;;;;8.50;5.17;;;;;;;4.22;100.00;98073.53;1744591;82;21002;-70
2021/11/30 02:32:44;;;;;;;8.77;5.60;;;;;;;4.19;100.00;98089.92;1739744;81;20966;-70
2021/11/30 02:35:11;;;;;;;9.50;5.97;;;;;;;4.12;100.00;98091.13;1781620;80;20992;-71
2021/11/30 02:37:44;;;;;;;8.90;5.40;;;;;;;4.09;100.00;98090.66;1770610;80;21093;-70
2021/11/30 02:40:09;;;;;;;11.53;6.53;;;;;;;4.05;100.00;98094.19;1780166;79;21524;-69
2021/11/30 02:42:35;;;;;;;10.17;5.87;;;;;;;4.00;100.00;98081.85;1781863;80;21026;-71
2021/11/30 02:45:03;;;;;;;10.77;6.00;;;;;;;3.96;100.00;98096.59;1781642;79;21076;-71
2021/11/30 02:47:30;;;;;;;12.03;6.50;;;;;;;3.87;100.00;98095.81;1781699;80;20984;-71
2021/11/30 02:49:57;;;;;;;14.00;7.30;;;;;;;3.82;100.00;98113.39;1781797;79;21054;-69
2021/11/30 02:52:27;;;;;;;13.30;7.17;;;;;;;3.75;100.00;98107.91;1781712;79;21489;-70
2021/11/30 02:54:53;;;;;;;14.03;6.67;;;;;;;3.69;100.00;98121.47;1781904;80;21019;-70
2021/11/30 02:57:22;;;;;;;14.67;7.50;;;;;;;3.63;100.00;98119.51;1771201;80;21034;-72
2021/11/30 02:59:52;;;;;;;15.47;7.50;;;;;;;3.57;100.00;98130.36;1782026;80;21019;-71
2021/11/30 03:02:26;;;;;;;13.47;7.50;;;;;;;3.53;100.00;98141.08;1782103;80;21038;-71
2021/11/30 03:04:59;;;;;;;13.37;7.13;;;;;;;3.49;100.00;98142.91;1716520;83;21003;-70
2021/11/30 03:07:38;;;;;;;13.03;7.40;;;;;;;3.44;100.00;98137.28;1717140;83;21148;-69
2021/11/30 03:10:17;;;;;;;12.77;7.53;;;;;;;3.42;100.00;98135.61;1716966;83;21058;-70
2021/11/30 03:12:45;;;;;;;12.53;7.47;;;;;;;3.37;100.00;98141.14;1716990;83;21046;-70
2021/11/30 03:15:16;;;;;;;13.27;7.30;;;;;;;3.35;100.00;98135.14;1716986;83;21079;-71
2021/11/30 03:17:44;;;;;;;13.73;7.80;;;;;;;3.36;100.00;98129.59;1656998;87;21027;-71
2021/11/30 03:20:11;;;;;;;12.67;7.63;;;;;;;3.39;100.00;98123.09;1657041;87;21536;-70
2021/11/30 03:22:40;;;;;;;11.73;7.43;;;;;;;3.39;100.00;98123.09;1656758;87;21549;-71
2021/11/30 03:25:08;;;;;;;14.63;7.90;;;;;;;3.37;100.00;98123.27;1657028;87;21073;-72
2021/11/30 03:27:35;;;;;;;12.53;7.40;;;;;;;3.38;100.00;98114.25;1656982;87;21117;-69
2021/11/30 03:30:07;;;;;;;15.53;8.10;;;;;;;3.39;100.00;98122.58;1655983;87;21090;-71
2021/11/30 03:35:22;;;;;;;15.93;7.73;;;;;;;3.33;100.00;98125.09;1675633;86;21063;-72
2021/11/30 03:37:49;;;;;;;15.67;8.00;;;;;;;3.33;100.00;98131.78;1679167;85;21162;-70
2021/11/30 03:40:16;;;;;;;13.73;7.80;;;;;;;3.32;100.00;98138.97;1643206;87;21028;-70
2021/11/30 03:42:43;;;;;;;14.23;8.20;;;;;;;3.34;100.00;98149.48;1680359;85;21110;-71
2021/11/30 03:45:10;;;;;;;15.33;7.67;;;;;;;3.34;100.00;98144.14;1642690;87;21084;-70
2021/11/30 03:47:37;;;;;;;12.23;6.83;;;;;;;3.35;100.00;98153.33;1679885;85;21103;-68
2021/11/30 03:50:04;;;;;;;12.50;7.70;;;;;;;3.34;100.00;98156.98;1643124;87;21027;-70
2021/11/30 03:52:32;;;;;;;10.77;7.13;;;;;;;3.32;100.00;98148.31;1680173;85;21027;-70
2021/11/30 03:54:59;;;;;;;10.73;6.67;;;;;;;3.31;100.00;98161.36;1656478;86;21048;-71
2021/11/30 03:57:25;;;;;;;14.23;7.70;;;;;;;3.28;100.00;98170.22;1711498;84;21015;-72
2021/11/30 03:59:52;;;;;;;13.10;7.67;;;;;;;3.23;100.00;98170.72;1711626;84;21528;-70
2021/11/30 04:02:19;;;;;;;10.53;6.50;;;;;;;3.20;100.00;98187.08;1705411;83;21597;-71
2021/11/30 04:04:46;;;;;;;13.10;7.20;;;;;;;3.18;100.00;98200.59;1703591;84;21057;-71
2021/11/30 04:07:14;;;;;;;12.40;7.40;;;;;;;3.14;100.00;98202.45;1703553;84;21018;-71
2021/11/30 04:09:42;;;;;;;11.77;6.60;;;;;;;3.07;100.00;98201.46;1703507;84;21010;-72
2021/11/30 04:12:09;;;;;;;9.27;6.33;;;;;;;3.01;100.00;98202.94;1703223;84;21536;-71
2021/11/30 04:14:36;;;;;;;11.10;6.80;;;;;;;2.90;100.00;98228.66;1732530;82;21022;-71
2021/11/30 04:17:06;;;;;;;8.97;6.50;;;;;;;2.79;100.00;98239.16;1756234;82;21002;-70
2021/11/30 04:19:34;;;;;;;10.97;6.37;;;;;;;2.72;100.00;98245.66;1764564;80;20961;-70
2021/11/30 04:22:00;;;;;;;10.97;6.67;;;;;;;2.66;100.00;98251.66;1785949;80;20989;-70
2021/11/30 04:24:27;;;;;;;12.67;7.00;;;;;;;2.59;100.00;98256.81;1785946;80;21087;-72
2021/11/30 04:26:54;;;;;;;13.20;7.57;;;;;;;2.53;100.00;98260.63;1784911;80;21517;-70
2021/11/30 04:29:21;;;;;;;11.93;7.17;;;;;;;2.48;100.00;98266.47;1785789;80;21068;-70
2021/11/30 04:31:48;;;;;;;13.57;7.20;;;;;;;2.45;100.00;98280.13;1786200;80;20988;-71
2021/11/30 04:34:16;;;;;;;13.53;6.23;;;;;;;2.44;100.00;98281.11;1787272;80;21034;-70
2021/11/30 04:36:43;;;;;;;11.00;6.90;;;;;;;2.41;100.00;98280.95;1746695;82;21058;-71
2021/11/30 04:39:10;;;;;;;12.57;7.33;;;;;;;2.43;100.00;98294.13;1744364;82;21002;-70
2021/11/30 04:41:37;;;;;;;15.07;7.60;;;;;;;2.40;100.00;98295.27;1744311;82;21532;-71
2021/11/30 04:44:06;;;;;;;14.10;7.30;;;;;;;2.39;100.00;98294.95;1781858;80;21015;-69
2021/11/30 04:46:42;;;;;;;14.93;7.83;;;;;;;2.38;100.00;98288.45;1781730;80;21043;-71
2021/11/30 04:49:15;;;;;;;16.97;8.23;;;;;;;2.38;100.00;98295.94;1744275;82;21041;-70
2021/11/30 04:51:40;;;;;;;14.23;8.18;;;;;;;2.36;100.00;98299.27;1781897;79;21458;-70
2021/11/30 04:54:07;;;;;;;12.03;7.70;;;;;;;2.35;100.00;98296.77;1781602;80;21054;-70
2021/11/30 04:56:35;;;;;;;11.33;7.10;;;;;;;2.29;100.00;98302.25;1744375;82;21504;-71
2021/11/30 04:59:02;;;;;;;13.70;7.50;;;;;;;2.26;100.00;98294.56;1781570;80;21042;-70
2021/11/30 05:01:30;;;;;;;12.00;7.40;;;;;;;2.23;100.00;98282.88;1781531;80;21023;-72
2021/11/30 05:03:59;;;;;;;13.37;8.00;;;;;;;2.20;100.00;98289.88;1781910;80;21082;-71
2021/11/30 05:06:26;;;;;;;10.90;6.73;;;;;;;2.17;100.00;98302.20;1744688;82;21069;-72
2021/11/30 05:08:54;;;;;;;10.53;6.80;;;;;;;2.14;100.00;98325.17;1744859;82;20995;-72
2021/11/30 05:11:21;;;;;;;12.43;7.33;;;;;;;2.09;100.00;98324.34;1744697;82;21021;-71
2021/11/30 05:13:48;;;;;;;13.73;7.53;;;;;;;2.07;100.00;98324.97;1781760;80;21631;-70
2021/11/30 05:16:16;;;;;;;13.67;7.77;;;;;;;2.04;100.00;98315.98;1781520;80;21031;-71
2021/11/30 05:18:43;;;;;;;14.93;8.20;;;;;;;2.00;100.00;98299.46;1781803;80;21019;-71
2021/11/30 05:21:09;;;;;;;14.73;8.60;;;;;;;1.98;100.00;98289.94;1724957;82;21009;-70
2021/11/30 05:23:36;;;;;;;16.97;8.90;;;;;;;1.95;100.00;98292.91;1781736;80;21019;-71
2021/11/30 05:26:05;;;;;;;16.57;9.33;;;;;;;1.90;100.00;98302.73;1781908;80;20943;-71
2021/11/30 05:28:34;;;;;;;18.60;8.47;;;;;;;1.81;100.00;98303.19;1781652;80;21062;-71
2021/11/30 05:31:04;;;;;;;13.33;7.70;;;;;;;1.75;100.00;98318.45;1781696;80;21011;-71
2021/11/30 05:33:31;;;;;;;13.93;8.83;;;;;;;1.71;100.00;98313.11;1729996;83;20993;-71
2021/11/30 05:35:58;;;;;;;14.37;8.10;;;;;;;1.68;100.00;98310.75;1729787;83;21026;-72
2021/11/30 05:38:26;;;;;;;13.50;8.10;;;;;;;1.64;100.00;98320.89;1729787;83;21096;-71
2021/11/30 05:40:52;;;;;;;14.00;8.10;;;;;;;1.59;100.00;98328.51;1714620;83;21045;-71
2021/11/30 05:43:19;;;;;;;15.20;8.53;;;;;;;1.56;100.00;98334.64;1714563;84;21093;-71
2021/11/30 05:45:46;;;;;;;14.93;8.67;;;;;;;1.50;100.00;98337.44;1714562;84;21552;-72
2021/11/30 05:48:13;;;;;;;12.50;7.80;;;;;;;1.48;100.00;98336.77;1714991;84;21025;-71
2021/11/30 05:50:41;;;;;;;16.40;9.10;;;;;;;1.54;100.00;98346.81;1714618;84;21079;-72
2021/11/30 05:53:07;;;;;;;15.37;9.13;;;;;;;1.61;100.00;98343.01;1730123;83;21025;-71
2021/11/30 05:55:36;;;;;;;15.47;9.10;;;;;;;1.66;100.00;98348.20;1714597;83;21062;-71
2021/11/30 05:58:03;;;;;;;14.00;8.40;;;;;;;1.70;100.00;98354.92;1729761;83;21527;-70
2021/11/30 06:00:31;;;;;;;20.63;13.13;;;;;;;1.71;100.00;98371.23;1729858;83;21037;-71
2021/11/30 06:05:25;;;;;;;24.17;17.23;;;;;;;1.61;100.00;98364.33;1714636;83;21182;-71
2021/11/30 06:07:52;;;;;;;22.43;15.70;;;;;;;1.58;100.00;98368.14;1729904;83;21034;-70
2021/11/30 06:10:18;;;;;;;16.93;9.90;;;;;;;1.56;100.00;98371.47;1724272;83;21036;-73
2021/11/30 06:12:45;;;;;;;16.53;9.53;;;;;;;1.54;100.00;98364.60;1709937;84;21013;-72
2021/11/30 06:15:14;;;;;;;15.17;9.07;;;;;;;1.53;100.00;98364.28;1709770;84;21542;-71
2021/11/30 06:17:41;;;;;;;15.63;8.60;;;;;;;1.55;100.00;98355.13;1710101;84;20998;-71
2021/11/30 06:22:39;;;;;;;23.50;16.60;;;;;;;1.59;100.00;98359.65;1648441;86;21055;-70
2021/11/30 06:25:07;;;;;;;17.93;11.17;;;;;;;1.60;100.00;98365.33;1648062;87;21094;-69
2021/11/30 06:27:34;;;;;;;17.30;10.03;;;;;;;1.60;100.00;98366.66;1648199;87;21082;-68
2021/11/30 06:30:01;;;;;;;16.07;8.67;;;;;;;1.62;100.00;98371.34;1653944;86;21546;-69
2021/11/30 06:32:28;;;;;;;16.00;9.73;;;;;;;1.65;100.00;98371.86;1666416;85;21054;-68
2021/11/30 06:34:55;;;;;;;17.07;11.43;;;;;;;1.66;100.00;98372.19;1657483;87;21527;-68
2021/11/30 06:37:22;;;;;;;18.70;11.50;;;;;;;1.74;100.00;98367.94;1690830;84;21081;-68
2021/11/30 06:39:52;;;;;;;19.97;13.07;;;;;;;1.78;100.00;98370.63;1657217;87;21068;-68
2021/11/30 06:42:18;;;;;;;14.67;9.40;;;;;;;1.83;100.00;98367.83;1690020;85;21060;-69
2021/11/30 06:44:46;;;;;;;15.07;8.93;;;;;;;1.88;100.00;98379.36;1657286;87;21498;-69
2021/11/30 06:47:13;;;;;;;16.47;9.90;;;;;;;1.96;100.00;98391.89;1690762;83;21022;-69
2021/11/30 06:49:40;;;;;;;15.93;7.93;;;;;;;2.04;100.00;98390.63;1690842;85;21086;-70
2021/11/30 06:52:07;;;;;;;14.87;8.20;;;;;;;2.13;100.00;98399.01;1690731;83;21563;-68
2021/11/30 06:54:34;;;;;;;14.73;8.43;;;;;;;2.16;100.00;98400.03;1690336;85;21030;-69
2021/11/30 06:57:01;;;;;;;14.20;7.70;;;;;;;2.23;100.00;98404.22;1690708;85;21015;-69
2021/11/30 06:59:29;;;;;;;14.80;8.87;;;;;;;2.31;100.00;98407.45;1690641;85;21619;-69
2021/11/30 07:01:57;;;;;;;16.87;10.50;;;;;;;2.34;100.00;98403.11;1690032;85;21082;-68
2021/11/30 07:04:27;;;;;;;15.40;8.47;;;;;;;2.40;100.00;98395.81;1690642;85;21573;-69
2021/11/30 07:09:38;;;;;;;14.87;8.40;;;;;;;2.54;100.00;98401.06;1690556;85;21019;-69
2021/11/30 07:12:09;;;;;;;14.93;8.67;;;;;;;2.58;100.00;98403.73;1690464;85;21027;-67
2021/11/30 07:14:32;;;;;;;14.87;8.13;;;;;;;2.70;100.00;98406.45;1687140;83;21050;-69
2021/11/30 07:16:59;;;;;;;19.30;11.40;;;;;;;2.76;100.00;98420.52;1667706;85;21050;-70
2021/11/30 07:19:29;;;;;;;15.33;8.10;;;;;;;2.79;100.00;98422.83;1722469;80;21021;-70
2021/11/30 07:21:55;;;;;;;20.37;11.63;;;;;;;2.89;100.00;98421.38;1723915;83;21033;-69
2021/11/30 07:24:22;;;;;;;14.33;8.47;;;;;;;2.98;100.00;98440.94;1723544;83;21088;-69
2021/11/30 07:26:49;;;;;;;14.07;8.40;;;;;;;3.10;100.00;98432.97;1771224;80;20981;-68
2021/11/30 07:29:16;;;;;;;19.40;11.63;;;;;;;3.21;100.00;98436.66;1781484;80;21003;-68
2021/11/30 07:31:45;;;;;;;16.77;9.40;;;;;;;3.35;100.00;98443.20;1781583;80;21042;-69
2021/11/30 07:34:12;;;;;;;19.00;11.37;;;;;;;3.46;100.00;98435.38;1781640;80;21046;-69
2021/11/30 07:36:39;;;;;;;16.93;9.43;;;;;;;3.58;100.00;98441.24;1781326;80;21093;-69
2021/11/30 07:39:06;;;;;;;19.17;10.97;;;;;;;3.73;100.00;98436.06;1751633;82;21081;-69
2021/11/30 07:41:35;;;;;;;18.00;9.83;;;;;;;3.83;100.00;98434.06;1769308;80;21058;-69
2021/11/30 07:44:04;;;;;;;24.27;13.67;;;;;;;3.91;100.00;98437.23;1752286;82;21069;-69
2021/11/30 07:46:31;;;;;;;21.03;11.37;;;;;;;3.99;100.00;98439.40;1719323;82;21597;-72
2021/11/30 07:48:58;;;;;;;22.43;12.93;;;;;;;4.07;100.00;98427.88;1720455;82;21002;-69
2021/11/30 07:51:26;;;;;;;36.27;18.47;;;;;;;4.17;100.00;98429.84;1717701;82;21567;-68
2021/11/30 07:53:54;;;;;;;28.03;16.27;;;;;;;4.17;100.00;98428.51;1743985;82;21090;-68
2021/11/30 07:56:22;;;;;;;37.80;21.47;;;;;;;4.23;100.00;98432.84;1729262;82;21103;-69
2021/11/30 07:58:49;;;;;;;25.77;14.90;;;;;;;4.23;100.00;98444.89;1681395;83;21086;-68
2021/11/30 08:01:16;;;;;;;37.03;22.73;;;;;;;4.25;100.00;98445.55;1671900;85;21606;-68
2021/11/30 08:03:43;;;;;;;30.13;19.50;;;;;;;4.29;100.00;98453.59;1701260;84;21116;-69
2021/11/30 08:06:11;;;;;;;22.83;15.10;;;;;;;4.37;100.00;98454.90;1705132;84;21551;-68
2021/11/30 08:08:38;;;;;;;19.83;12.20;;;;;;;4.38;100.00;98448.04;1706396;84;20996;-69
2021/11/30 08:11:06;;;;;;;20.37;13.23;;;;;;;4.39;100.00;98448.87;1711361;84;21524;-68
2021/11/30 08:13:33;;;;;;;26.50;18.03;;;;;;;4.40;100.00;98447.88;1705564;84;21051;-68
2021/11/30 08:16:01;;;;;;;17.37;11.63;;;;;;;4.46;100.00;98443.67;1693723;84;21039;-69
2021/11/30 08:18:27;;;;;;;18.60;10.90;;;;;;;4.54;100.00;98429.77;1735983;82;21051;-68
2021/11/30 08:20:55;;;;;;;28.27;18.27;;;;;;;4.55;100.00;98432.79;1701619;82;21062;-70
2021/11/30 08:23:22;;;;;;;24.70;16.07;;;;;;;4.60;100.00;98438.13;1733900;82;21093;-68
2021/11/30 08:25:49;;;;;;;24.67;15.27;;;;;;;4.72;100.00;98435.41;1730532;82;21061;-66
2021/11/30 08:28:16;;;;;;;17.67;10.70;;;;;;;4.86;100.00;98437.36;1727512;82;20991;-68
2021/11/30 08:30:46;;;;;;;23.33;14.13;;;;;;;5.02;100.00;98431.61;1730547;82;21532;-67
2021/11/30 08:33:12;;;;;;;22.77;15.63;;;;;;;4.98;100.00;98433.80;1663499;85;21023;-69
2021/11/30 08:35:39;;;;;;;17.73;11.00;;;;;;;4.98;100.00;98429.78;1626644;87;20967;-68
2021/11/30 08:38:06;;;;;;;17.30;10.57;;;;;;;4.86;100.00;98437.87;1624305;87;21225;-69
2021/11/30 08:40:33;;;;;;;16.87;10.33;;;;;;;4.79;100.00;98440.40;1651359;87;21102;-68
2021/11/30 08:43:00;;;;;;;16.00;10.40;;;;;;;4.76;100.00;98447.43;1678080;83;21072;-68
2021/11/30 08:45:27;;;;;;;15.53;9.03;;;;;;;4.78;100.00;98453.47;1707150;82;21026;-68
2021/11/30 08:47:55;;;;;;;14.53;8.90;;;;;;;4.72;100.00;98458.16;1694142;83;21017;-67
2021/11/30 08:50:22;;;;;;;15.17;8.93;;;;;;;4.74;100.00;98461.50;1717928;83;21554;-68
2021/11/30 08:52:48;;;;;;;18.70;11.53;;;;;;;4.79;100.00;98459.66;1715730;83;21270;-68
2021/11/30 08:55:15;;;;;;;18.47;11.47;;;;;;;4.74;100.00;98462.33;1713373;83;21017;-68
2021/11/30 08:57:43;;;;;;;18.13;10.87;;;;;;;4.66;100.00;98457.02;1715882;83;21025;-68
2021/11/30 09:00:14;;;;;;;18.60;12.30;;;;;;;4.62;100.00;98449.48;1712648;83;21028;-68
2021/11/30 09:02:42;;;;;;;18.20;11.50;;;;;;;4.70;100.00;98436.09;1713512;84;21064;-68
2021/11/30 09:05:09;;;;;;;19.73;11.77;;;;;;;4.74;100.00;98440.08;1706347;84;21028;-68
2021/11/30 09:07:36;;;;;;;19.30;12.30;;;;;;;4.81;100.00;98427.66;1709155;83;20949;-68
2021/11/30 09:10:05;;;;;;;16.57;10.40;;;;;;;4.99;100.00;98427.92;1713698;83;21064;-67
2021/11/30 09:12:32;;;;;;;22.03;13.63;;;;;;;5.21;100.00;98429.83;1713876;82;20977;-67
2021/11/30 09:14:59;;;;;;;17.47;10.37;;;;;;;5.45;100.00;98422.64;1713915;84;21032;-69
2021/11/30 09:17:26;;;;;;;20.13;11.97;;;;;;;5.55;100.00;98423.25;1714367;83;21037;-66
2021/11/30 09:19:53;;;;;;;21.83;13.03;;;;;;;5.54;100.00;98427.44;1720646;83;21044;-69
2021/11/30 09:22:21;;;;;;;17.90;10.20;;;;;;;5.58;100.00;98437.64;1714845;83;20977;-67
2021/11/30 09:24:48;;;;;;;16.70;10.10;;;;;;;5.57;100.00;98432.45;1690008;84;21064;-67
2021/11/30 09:27:16;;;;;;;17.03;10.80;;;;;;;5.56;100.00;98424.92;1713773;84;21006;-68
2021/11/30 09:29:43;;;;;;;16.27;9.83;;;;;;;5.69;100.00;98422.98;1742900;80;21497;-68
2021/11/30 09:32:11;;;;;;;16.27;10.43;;;;;;;5.63;100.00;98425.88;1789707;80;21014;-71
2021/11/30 09:34:38;;;;;;;16.10;9.80;;;;;;;5.53;100.00;98409.70;1790430;79;21037;-68
2021/11/30 09:37:07;;;;;;;17.27;10.97;;;;;;;5.42;100.00;98418.48;1789664;80;20955;-66
2021/11/30 09:39:35;;;;;;;17.33;10.20;;;;;;;5.43;100.00;98411.27;1794173;79;21021;-66
2021/11/30 09:42:03;;;;;;;15.07;9.20;;;;;;;5.47;100.00;98408.55;1791348;80;20992;-69
2021/11/30 09:44:31;;;;;;;17.63;11.70;;;;;;;5.47;100.00;98401.36;1794224;80;21028;-66
2021/11/30 09:47:00;;;;;;;19.87;12.40;;;;;;;5.42;100.00;98394.84;1794832;80;20993;-66
2021/11/30 09:49:28;;;;;;;17.53;10.17;;;;;;;5.36;100.00;98405.77;1798161;79;21455;-65
2021/11/30 09:51:55;;;;;;;15.37;9.43;;;;;;;5.40;100.00;98406.25;1801368;79;21017;-68
2021/11/30 09:54:21;;;;;;;15.77;9.67;;;;;;;5.34;100.00;98397.08;1797468;79;21500;-67
2021/11/30 09:56:48;;;;;;;18.10;11.50;;;;;;;5.25;100.00;98400.83;1802335;79;20982;-69
2021/11/30 09:59:15;;;;;;;22.43;11.43;;;;;;;5.12;100.00;98399.56;1795550;79;20974;-66
2021/11/30 10:01:42;;;;;;;19.97;11.70;;;;;;;5.06;100.00;98402.10;1796912;79;20953;-65
2021/11/30 10:04:09;;;;;;;16.93;10.43;;;;;;;5.09;100.00;98393.73;1794160;79;21480;-66
2021/11/30 10:06:36;;;;;;;47.67;22.37;;;;;;;5.17;100.00;98394.17;1760679;80;21037;-67
2021/11/30 10:09:05;;;;;;;30.23;16.50;;;;;;;5.23;100.00;98385.44;1792136;80;21546;-66
2021/11/30 10:11:38;;;;;;;22.60;13.37;;;;;;;5.28;100.00;98386.57;1786021;80;21487;-67
2021/11/30 10:14:23;;;;;;;16.10;8.83;;;;;;;5.34;100.00;98389.04;1795749;80;21491;-67
2021/11/30 10:17:26;;;;;;;20.63;13.70;;;;;;;5.29;100.00;98391.41;1714744;83;21020;-65
2021/11/30 10:20:00;;;;;;;20.00;12.70;;;;;;;5.09;100.00;98399.08;1712462;83;21078;-65
2021/11/30 10:22:52;;;;;;;19.73;11.57;;;;;;;4.90;100.00;98392.31;1709193;83;21011;-67
2021/11/30 10:25:33;;;;;;;18.83;12.07;;;;;;;4.81;100.00;98403.56;1713713;83;21050;-68
2021/11/30 10:28:06;;;;;;;18.37;10.53;;;;;;;4.66;100.00;98405.32;1674657;83;21126;-68
2021/11/30 10:30:37;;;;;;;22.80;14.43;;;;;;;4.48;100.00;98392.14;1708200;83;20999;-66
2021/11/30 10:33:11;;;;;;;21.50;12.37;;;;;;;4.37;100.00;98385.32;1703361;83;21060;-67
2021/11/30 10:35:38;;;;;;;23.60;13.60;;;;;;;4.37;100.00;98383.50;1653137;85;22500;-66
2021/11/30 10:38:05;;;;;;;27.30;16.40;;;;;;;4.35;100.00;98374.78;1629474;87;21121;-69
2021/11/30 10:40:35;;;;;;;23.80;14.53;;;;;;;4.26;100.00;98375.81;1613516;88;21054;-67
2021/11/30 10:43:05;;;;;;;18.93;11.07;;;;;;;4.28;100.00;98389.86;1575809;90;21083;-66
2021/11/30 10:45:40;;;;;;;23.57;15.03;;;;;;;4.33;100.00;98392.03;1556249;92;21578;-67
2021/11/30 10:48:17;;;;;;;20.27;13.27;;;;;;;4.38;100.00;98395.86;1561017;92;21083;-71
2021/11/30 10:50:56;;;;;;;20.27;12.17;;;;;;;4.34;100.00;98406.58;1555913;92;21623;-69
2021/11/30 10:53:28;;;;;;;21.40;13.57;;;;;;;4.29;100.00;98402.24;1560087;90;21060;-68
2021/11/30 10:56:01;;;;;;;20.70;13.33;;;;;;;4.28;100.00;98419.29;1524681;92;21060;-66
2021/11/30 10:58:32;;;;;;;18.47;10.00;;;;;;;4.24;100.00;98422.50;1571121;90;21192;-69
2021/11/30 11:01:02;;;;;;;37.63;18.50;;;;;;;4.18;100.00;98424.02;1564506;90;21606;-68
2021/11/30 11:03:30;;;;;;;34.50;19.40;;;;;;;4.13;100.00;98423.17;1575591;90;21074;-66
2021/11/30 11:08:48;;;;;;;19.27;10.47;;;;;;;4.05;100.00;98419.16;1560149;90;21093;-67
2021/11/30 11:11:20;;;;;;;47.63;32.67;;;;;;;4.05;100.00;98420.50;1575708;90;21102;-67
2021/11/30 11:13:47;;;;;;;29.30;18.73;;;;;;;4.01;100.00;98419.69;1583321;90;21022;-74
2021/11/30 11:16:32;;;;;;;32.60;19.27;;;;;;;3.91;100.00;98406.47;1589009;90;21022;-72
2021/11/30 11:19:05;;;;;;;23.83;12.03;;;;;;;3.84;100.00;98404.14;1576735;91;21110;-70
2021/11/30 11:21:35;;;;;;;22.90;14.37;;;;;;;3.76;100.00;98400.47;1562836;90;21087;-71
2021/11/30 11:24:13;;;;;;;31.17;17.33;;;;;;;3.69;100.00;98398.64;1553191;90;21067;-71
2021/11/30 11:26:43;;;;;;;37.07;21.60;;;;;;;3.64;100.00;98394.30;1585751;89;21029;-71
2021/11/30 11:29:18;;;;;;;32.50;18.07;;;;;;;3.61;100.00;98394.11;1559389;90;21033;-72
2021/11/30 11:31:52;;;;;;;34.13;23.17;;;;;;;3.57;100.00;98386.93;1564714;88;21059;-73
2021/11/30 11:34:21;;;;;;;29.57;19.80;;;;;;;3.58;100.00;98387.28;1563432;91;21578;-70
2021/11/30 11:36:50;;;;;;;23.63;15.90;;;;;;;3.64;100.00;98383.61;1577449;91;21035;-71
2021/11/30 11:39:18;;;;;;;21.80;14.07;;;;;;;3.70;100.00;98377.58;1533514;91;21131;-70
2021/11/30 11:41:51;;;;;;;22.83;14.83;;;;;;;3.68;100.00;98372.91;1552675;91;21621;-70
2021/11/30 11:44:19;;;;;;;33.80;16.95;;;;;;;3.67;100.00;98373.92;1582024;89;21119;-71
2021/11/30 11:46:48;;;;;;;26.27;13.67;;;;;;;3.65;100.00;98360.72;1577565;90;21558;-70